ソチ の空港の天気 - METARとTAF

ソチ空港 ( URSS / AER ) - ロシア ソチ
飛行場実況気象(Metar)
観測時間04/24 18:30 MSK (04/24 15:30 UTC)
風向・風速西北西 4m/s
視程10km以上
天気現象
全天の8割程度の雲 雲底高度 910m
気温13℃
湿度77%
気圧1027hPa
METARURSS 241530Z 30004MPS 9999 BKN030 13/09 Q1027 R02/010070 R06/010070 NOSIG RMK R06/30005G08MPS MT OBSC QFE769
過去の天気等 Google飛行場航空写真 Wunderground天気予報

過去48時間のMETAR

飛行場予報(TAF)
発表時間: 4/24 16:55 MSK (4/24 13:55 UTC)
予報対象時間: 24日18時 MSK ~ 25日18時 MSK
風向・風速西 5m/s 瞬間風速 10m/s
視程10km以上
全天の4割程度の雲 雲底高度 460m
24日20時 MSK ~ 24日22時 MSK に徐々に
風向・風速北東 5m/s
25日11時 MSK ~ 25日12時 MSK に徐々に
風向・風速南 5m/s 瞬間風速 10m/s
25日12時 MSK ~ 25日13時 MSK に徐々に
風向・風速西 5m/s 瞬間風速 10m/s
TAF URSS 241355Z 2415/2515 27005G10MPS 9999 SCT015
BECMG 2417/2419 05005MPS
BECMG 2508/2509 18005G10MPS
BECMG 2509/2510 27005G10MPS